Time;durP1;ratioP1;P1;durP2;ratioP2;P2;SDS_P1;SDS_P2;PMS_P1;PMS_P2;Temp;Humidity;BMP_temperature;BMP_pressure;BME280_temperature;BME280_humidity;BME280_pressure;Samples;Min_cycle;Max_cycle;Signal;HPM_P1;HPM_P2
2022/09/04 00:00:13;;;;;;;1.03;0.80;;;14.80;99.90;;;;;;5044618;28;20230;-46
2022/09/04 00:03:07;;;;;;;0.63;0.60;;;14.90;99.90;;;;;;5037189;28;20234;-47
2022/09/04 00:05:41;;;;;;;1.10;0.67;;;14.80;99.90;;;;;;5042328;28;20203;-46
2022/09/04 00:08:30;;;;;;;1.30;0.50;;;14.80;99.90;;;;;;5046796;28;20203;-45
2022/09/04 00:11:04;;;;;;;0.70;0.70;;;14.80;99.90;;;;;;5046384;28;20196;-45
2022/09/04 00:13:36;;;;;;;0.73;0.57;;;14.80;99.90;;;;;;5025534;28;20219;-47
2022/09/04 00:16:08;;;;;;;0.60;0.53;;;14.70;99.90;;;;;;5046313;28;20198;-45
2022/09/04 00:18:39;;;;;;;1.37;0.60;;;14.70;99.90;;;;;;5042553;28;20207;-44
2022/09/04 00:21:16;;;;;;;3.00;0.57;;;14.70;99.90;;;;;;5046508;28;20227;-47
2022/09/04 00:23:49;;;;;;;1.83;0.70;;;14.70;99.90;;;;;;5042416;28;20215;-45
2022/09/04 00:26:24;;;;;;;3.07;0.70;;;14.60;99.90;;;;;;5039644;28;20203;-44
2022/09/04 00:28:58;;;;;;;0.97;0.70;;;14.60;99.90;;;;;;5030369;28;20698;-48
2022/09/04 00:31:30;;;;;;;1.33;0.77;;;14.50;99.90;;;;;;5039287;28;20222;-44
2022/09/04 00:34:06;;;;;;;1.63;0.63;;;14.50;99.90;;;;;;5044760;28;20215;-46
2022/09/04 00:36:37;;;;;;;2.83;0.60;;;14.50;99.90;;;;;;5042293;28;20195;-45
2022/09/04 00:39:12;;;;;;;0.83;0.60;;;14.40;99.90;;;;;;5046286;28;20207;-43
2022/09/04 00:41:51;;;;;;;1.10;0.57;;;14.40;99.90;;;;;;5042022;28;20197;-48
2022/09/04 00:44:42;;;;;;;0.83;0.63;;;14.40;99.90;;;;;;5029453;28;20301;-45
2022/09/04 00:47:38;;;;;;;1.43;0.60;;;14.40;99.90;;;;;;5045706;28;20286;-46
2022/09/04 00:50:39;;;;;;;1.43;0.57;;;14.40;99.90;;;;;;5046104;28;20253;-45
2022/09/04 00:53:26;;;;;;;0.67;0.63;;;14.30;99.90;;;;;;5045509;28;20230;-44
2022/09/04 00:56:14;;;;;;;1.77;0.67;;;14.30;99.90;;;;;;5044740;28;20718;-46
2022/09/04 00:58:56;;;;;;;2.87;0.80;;;14.30;99.90;;;;;;5027853;28;20321;-46
2022/09/04 01:01:27;;;;;;;1.83;0.90;;;14.30;99.90;;;;;;5042701;28;20230;-46
2022/09/04 01:04:35;;;;;;;1.23;0.70;;;14.30;99.90;;;;;;5037177;28;20227;-49
2022/09/04 01:07:34;;;;;;;0.70;0.60;;;14.30;99.90;;;;;;5003032;28;20200;-46
2022/09/04 01:10:15;;;;;;;1.20;0.57;;;14.20;99.90;;;;;;5003053;28;20211;-45
2022/09/04 01:12:48;;;;;;;1.47;0.70;;;14.20;99.90;;;;;;5033378;28;20223;-47
2022/09/04 01:15:21;;;;;;;1.03;0.53;;;14.20;99.90;;;;;;5030421;28;20576;-47
2022/09/04 01:18:00;;;;;;;0.87;0.80;;;14.20;99.90;;;;;;5041780;28;20184;-46
2022/09/04 01:20:43;;;;;;;2.60;1.00;;;14.20;99.90;;;;;;5042327;28;20219;-44
2022/09/04 01:23:30;;;;;;;1.97;0.97;;;14.20;99.90;;;;;;5044572;28;20254;-48
2022/09/04 01:26:07;;;;;;;3.20;0.60;;;14.10;99.90;;;;;;5043777;28;20581;-43
2022/09/04 01:28:42;;;;;;;3.77;0.90;;;14.10;99.90;;;;;;5035645;28;20202;-46
2022/09/04 01:31:21;;;;;;;0.97;0.83;;;14.10;99.90;;;;;;5030946;28;20210;-46
2022/09/04 01:34:00;;;;;;;1.73;0.70;;;14.10;99.90;;;;;;5041768;28;20218;-47
2022/09/04 01:36:35;;;;;;;0.60;0.60;;;14.10;99.90;;;;;;5042399;28;20199;-46
2022/09/04 01:39:02;;;;;;;1.27;0.60;;;14.10;99.90;;;;;;5045197;28;20706;-44
2022/09/04 01:41:34;;;;;;;1.87;0.87;;;14.10;99.90;;;;;;5041494;28;20696;-44
2022/09/04 01:44:04;;;;;;;0.80;0.80;;;14.10;99.90;;;;;;5039324;28;20216;-45
2022/09/04 01:46:48;;;;;;;3.27;0.70;;;14.10;99.90;;;;;;5028654;28;20195;-49
2022/09/04 01:49:26;;;;;;;1.50;0.40;;;14.10;99.90;;;;;;5043472;28;20214;-43
2022/09/04 01:52:02;;;;;;;1.00;0.70;;;14.00;99.90;;;;;;5043610;28;20203;-49
2022/09/04 01:54:46;;;;;;;1.83;0.67;;;14.00;99.90;;;;;;5040817;28;20621;-46
2022/09/04 01:57:29;;;;;;;2.40;0.80;;;14.00;99.90;;;;;;5044553;28;20203;-45
2022/09/04 02:00:05;;;;;;;2.20;0.70;;;14.00;99.90;;;;;;5044277;28;20218;-46
2022/09/04 02:02:52;;;;;;;0.50;0.50;;;14.00;99.90;;;;;;5026479;28;20207;-43
2022/09/04 02:05:26;;;;;;;1.90;0.57;;;13.90;99.90;;;;;;5042470;28;20199;-43
2022/09/04 02:08:05;;;;;;;0.57;0.57;;;14.00;99.90;;;;;;5043614;28;20195;-45
2022/09/04 02:10:43;;;;;;;0.83;0.83;;;13.90;99.90;;;;;;5040767;28;20203;-47
2022/09/04 02:13:21;;;;;;;1.70;0.80;;;13.90;99.90;;;;;;5042134;28;20215;-49
2022/09/04 02:15:59;;;;;;;3.90;0.73;;;13.90;99.90;;;;;;5039639;28;20270;-43
2022/09/04 02:18:34;;;;;;;0.60;0.60;;;13.90;99.90;;;;;;5028325;28;20199;-43
2022/09/04 02:21:07;;;;;;;1.70;0.60;;;13.90;99.90;;;;;;5043776;28;20272;-44
2022/09/04 02:23:40;;;;;;;1.57;0.80;;;13.90;99.90;;;;;;5039198;28;20222;-46
2022/09/04 02:26:12;;;;;;;1.33;0.70;;;13.90;99.90;;;;;;5044279;28;20211;-48
2022/09/04 02:28:49;;;;;;;2.27;0.80;;;13.90;99.90;;;;;;5040270;28;20198;-44
2022/09/04 02:31:25;;;;;;;2.17;0.97;;;13.90;99.90;;;;;;5043435;28;20195;-41
2022/09/04 02:34:00;;;;;;;1.47;0.80;;;13.90;99.90;;;;;;5028647;28;20947;-46
2022/09/04 02:36:34;;;;;;;1.40;0.70;;;13.90;99.90;;;;;;5035551;28;20202;-44
2022/09/04 02:39:12;;;;;;;1.83;0.77;;;13.90;99.90;;;;;;5044082;28;20269;-44
2022/09/04 02:41:49;;;;;;;1.30;0.43;;;13.90;99.90;;;;;;5039796;28;20217;-47
2022/09/04 02:44:29;;;;;;;0.70;0.57;;;13.90;99.90;;;;;;5041866;28;20226;-44
2022/09/04 02:47:06;;;;;;;3.13;0.60;;;13.80;99.90;;;;;;5043412;28;20191;-44
2022/09/04 02:49:47;;;;;;;2.07;0.60;;;13.80;99.90;;;;;;5025882;28;20199;-48
2022/09/04 02:52:32;;;;;;;0.93;0.60;;;13.80;99.90;;;;;;5043127;28;20225;-47
2022/09/04 02:55:11;;;;;;;3.60;1.07;;;13.80;99.90;;;;;;5042807;28;20245;-43
2022/09/04 02:57:53;;;;;;;1.57;0.83;;;13.70;99.90;;;;;;5039386;28;20191;-42
2022/09/04 03:00:30;;;;;;;0.97;0.90;;;13.70;99.90;;;;;;5042036;28;20219;-45
2022/09/04 03:03:05;;;;;;;0.70;0.60;;;13.60;99.90;;;;;;5042943;28;20695;-44
2022/09/04 03:05:40;;;;;;;0.97;0.67;;;13.60;99.90;;;;;;5024889;28;20206;-42
2022/09/04 03:08:15;;;;;;;1.43;0.70;;;13.70;99.90;;;;;;5043122;28;20202;-42
2022/09/04 03:10:45;;;;;;;1.97;0.70;;;13.60;99.90;;;;;;5033730;28;20922;-44
2022/09/04 03:13:21;;;;;;;0.80;0.80;;;13.60;99.90;;;;;;5041970;28;20251;-44
2022/09/04 03:15:55;;;;;;;2.33;0.87;;;13.60;99.90;;;;;;5041346;28;20198;-46
2022/09/04 03:18:27;;;;;;;1.03;0.77;;;13.60;99.90;;;;;;5041952;28;20203;-43
2022/09/04 03:20:59;;;;;;;1.00;0.77;;;13.60;99.90;;;;;;5028864;28;20826;-45
2022/09/04 03:23:38;;;;;;;0.87;0.70;;;13.50;99.90;;;;;;5039319;28;20239;-42
2022/09/04 03:26:18;;;;;;;0.77;0.70;;;13.50;99.90;;;;;;5043121;28;20241;-44
2022/09/04 03:29:09;;;;;;;1.03;0.50;;;13.50;99.90;;;;;;5040277;28;20501;-43
2022/09/04 03:31:45;;;;;;;1.17;0.60;;;13.50;99.90;;;;;;5038973;28;20180;-48
2022/09/04 03:34:26;;;;;;;0.70;0.57;;;13.40;99.90;;;;;;5042269;28;20226;-43
2022/09/04 03:37:10;;;;;;;0.50;0.50;;;13.40;99.90;;;;;;5027897;28;20221;-42
2022/09/04 03:39:48;;;;;;;0.53;0.40;;;13.40;99.90;;;;;;5038988;28;20881;-48
2022/09/04 03:42:24;;;;;;;0.63;0.53;;;13.40;99.90;;;;;;5042070;28;20632;-42
2022/09/04 03:45:08;;;;;;;1.60;0.73;;;13.40;99.90;;;;;;5040430;28;20187;-43
2022/09/04 03:47:46;;;;;;;0.80;0.70;;;13.30;99.90;;;;;;5032918;28;20879;-44
2022/09/04 03:50:23;;;;;;;5.80;0.87;;;13.30;99.90;;;;;;5043021;28;20199;-45
2022/09/04 03:52:58;;;;;;;0.83;0.73;;;13.30;99.90;;;;;;5027225;28;20215;-45
2022/09/04 03:55:44;;;;;;;1.03;0.60;;;13.30;99.90;;;;;;5037929;28;20206;-45
2022/09/04 03:58:18;;;;;;;1.83;0.53;;;13.30;99.90;;;;;;5042769;28;20230;-46
2022/09/04 04:00:55;;;;;;;1.30;0.90;;;13.20;99.90;;;;;;5034712;28;20266;-47
2022/09/04 04:03:38;;;;;;;0.77;0.70;;;13.20;99.90;;;;;;5039798;28;20250;-43
2022/09/04 04:06:17;;;;;;;1.97;0.80;;;13.20;99.90;;;;;;5042725;28;20215;-46
2022/09/04 04:08:58;;;;;;;0.93;0.60;;;13.20;99.90;;;;;;5030102;28;20916;-45
2022/09/04 04:11:41;;;;;;;1.30;0.90;;;13.20;99.90;;;;;;5040191;28;20195;-45
2022/09/04 04:14:37;;;;;;;1.10;0.70;;;13.20;99.90;;;;;;5041360;28;20271;-48
2022/09/04 04:17:18;;;;;;;1.37;0.90;;;13.10;99.90;;;;;;5037108;28;20191;-46
2022/09/04 04:20:02;;;;;;;1.63;1.10;;;13.10;99.90;;;;;;5039880;28;20187;-44
2022/09/04 04:22:51;;;;;;;1.07;0.90;;;13.00;99.90;;;;;;5025462;28;20215;-46
2022/09/04 04:25:35;;;;;;;0.73;0.70;;;13.00;99.90;;;;;;5040271;28;20203;-45
2022/09/04 04:28:21;;;;;;;2.17;0.93;;;12.90;99.90;;;;;;5042517;28;20192;-46
2022/09/04 04:30:51;;;;;;;1.17;0.80;;;12.90;99.90;;;;;;5040547;28;20194;-45
2022/09/04 04:33:41;;;;;;;1.20;0.80;;;13.00;99.90;;;;;;5040861;28;20230;-44
2022/09/04 04:36:23;;;;;;;2.67;0.83;;;13.00;99.90;;;;;;5043578;28;20687;-45
2022/09/04 04:39:01;;;;;;;1.33;0.80;;;12.90;99.90;;;;;;5030674;28;20187;-47
2022/09/04 04:42:03;;;;;;;1.13;0.70;;;12.80;99.90;;;;;;5041939;28;20203;-43
2022/09/04 04:47:43;;;;;;;1.77;0.70;;;12.80;99.90;;;;;;5043731;28;20199;-44
2022/09/04 04:50:18;;;;;;;0.70;0.70;;;12.70;99.90;;;;;;5046106;28;20725;-48
2022/09/04 04:53:01;;;;;;;4.07;0.80;;;12.70;99.90;;;;;;5029864;28;21450;-44
2022/09/04 04:55:38;;;;;;;1.70;1.00;;;12.70;99.90;;;;;;5035756;28;20203;-44
2022/09/04 04:58:29;;;;;;;2.47;0.80;;;12.70;99.90;;;;;;5045658;28;20207;-48
2022/09/04 05:01:08;;;;;;;2.07;0.90;;;12.70;99.90;;;;;;5045460;28;20207;-43
2022/09/04 05:03:49;;;;;;;3.60;1.00;;;12.70;99.90;;;;;;5040450;28;20229;-44
2022/09/04 05:06:25;;;;;;;1.80;0.73;;;12.70;99.90;;;;;;5045330;28;20222;-43
2022/09/04 05:09:01;;;;;;;1.40;0.50;;;12.60;99.90;;;;;;5030569;28;20277;-43
2022/09/04 05:11:39;;;;;;;0.90;0.70;;;12.70;99.90;;;;;;5042083;28;20194;-44
2022/09/04 05:14:17;;;;;;;1.50;0.80;;;12.60;99.90;;;;;;5038927;28;20285;-46
2022/09/04 05:16:54;;;;;;;1.67;0.80;;;12.60;99.90;;;;;;5042599;28;20206;-45
2022/09/04 05:19:29;;;;;;;2.50;0.97;;;12.60;99.90;;;;;;5039051;28;20572;-43
2022/09/04 05:22:05;;;;;;;1.30;0.63;;;12.70;99.90;;;;;;5044613;28;20219;-45
2022/09/04 05:24:41;;;;;;;0.93;0.90;;;12.70;99.90;;;;;;5028293;28;20279;-44
2022/09/04 05:27:30;;;;;;;1.13;0.80;;;12.80;99.90;;;;;;5044661;28;20203;-48
2022/09/04 05:30:05;;;;;;;2.87;0.70;;;12.80;99.90;;;;;;5039931;28;20199;-44
2022/09/04 05:32:37;;;;;;;0.73;0.73;;;12.90;99.90;;;;;;5041263;28;20218;-44
2022/09/04 05:35:13;;;;;;;6.70;0.80;;;12.90;99.90;;;;;;5044308;28;20203;-46
2022/09/04 05:37:46;;;;;;;0.70;0.70;;;12.90;99.90;;;;;;5041472;28;20202;-47
2022/09/04 05:40:23;;;;;;;1.77;0.80;;;13.00;99.90;;;;;;5045192;28;20199;-46
2022/09/04 05:43:04;;;;;;;1.67;0.83;;;13.00;99.90;;;;;;5036792;28;20996;-46
2022/09/04 05:45:46;;;;;;;1.10;0.60;;;13.00;99.90;;;;;;5035384;28;20195;-43
2022/09/04 05:48:25;;;;;;;1.03;0.90;;;13.10;99.90;;;;;;5044756;28;20221;-45
2022/09/04 05:51:31;;;;;;;1.47;0.80;;;13.10;99.90;;;;;;5043637;28;20222;-42
2022/09/04 05:54:22;;;;;;;0.93;0.57;;;13.30;99.90;;;;;;5043724;28;20219;-44
2022/09/04 05:57:04;;;;;;;0.93;0.87;;;13.40;99.90;;;;;;5019155;28;20733;-48
2022/09/04 06:00:02;;;;;;;0.70;0.70;;;13.40;99.90;;;;;;5037042;28;20207;-43
2022/09/04 06:03:09;;;;;;;0.60;0.60;;;13.50;99.90;;;;;;5027400;28;20227;-44
2022/09/04 06:05:50;;;;;;;1.87;0.70;;;13.60;99.90;;;;;;5039286;28;20218;-44
2022/09/04 06:08:37;;;;;;;0.97;0.90;;;13.70;99.90;;;;;;5044675;28;20692;-45
2022/09/04 06:11:32;;;;;;;1.07;0.60;;;13.80;99.90;;;;;;5044641;28;20210;-43
2022/09/04 06:14:11;;;;;;;1.03;0.77;;;13.90;99.90;;;;;;5038256;28;20233;-42
2022/09/04 06:16:51;;;;;;;0.70;0.60;;;14.00;99.90;;;;;;5033399;28;20211;-43
2022/09/04 06:19:45;;;;;;;2.53;1.27;;;14.10;99.90;;;;;;5036770;28;20237;-43
2022/09/04 06:22:45;;;;;;;1.63;0.80;;;14.20;99.90;;;;;;5039328;28;20235;-44
2022/09/04 06:25:26;;;;;;;3.10;0.90;;;14.30;99.90;;;;;;5042035;28;20199;-43
2022/09/04 06:28:17;;;;;;;1.87;0.73;;;14.40;99.90;;;;;;5027022;28;21563;-46
2022/09/04 06:30:51;;;;;;;1.43;0.70;;;14.60;99.90;;;;;;5036601;28;20373;-43
2022/09/04 06:33:34;;;;;;;1.23;1.13;;;14.70;99.90;;;;;;5042948;28;20215;-42
2022/09/04 06:36:13;;;;;;;0.60;0.60;;;14.80;99.90;;;;;;5041440;28;20199;-43
2022/09/04 06:38:52;;;;;;;1.43;1.00;;;14.90;99.90;;;;;;5034461;28;20265;-45
2022/09/04 06:41:40;;;;;;;1.33;1.17;;;15.10;99.90;;;;;;5043508;28;20199;-44
2022/09/04 06:44:24;;;;;;;3.90;1.00;;;15.30;99.90;;;;;;5026443;28;20223;-48
2022/09/04 06:47:00;;;;;;;1.10;0.90;;;15.40;99.90;;;;;;5038286;28;20326;-44
2022/09/04 06:49:36;;;;;;;0.93;0.70;;;15.60;99.90;;;;;;5042145;28;20277;-42
2022/09/04 06:52:14;;;;;;;1.87;0.90;;;15.80;99.90;;;;;;5044237;28;20198;-43
2022/09/04 06:54:54;;;;;;;2.23;0.80;;;15.90;99.90;;;;;;5039428;28;20196;-42
2022/09/04 06:58:01;;;;;;;2.57;0.87;;;16.00;99.90;;;;;;5049356;28;20215;-42
2022/09/04 07:00:33;;;;;;;3.80;1.60;;;16.10;99.90;;;;;;5021745;28;20222;-43
2022/09/04 07:03:20;;;;;;;1.50;1.10;;;16.20;99.90;;;;;;5045811;28;20223;-44
2022/09/04 07:05:54;;;;;;;3.03;1.00;;;16.30;99.90;;;;;;5032937;28;20199;-42
2022/09/04 07:08:32;;;;;;;2.23;1.20;;;16.40;99.90;;;;;;5042981;28;20290;-44
2022/09/04 07:11:13;;;;;;;1.20;1.10;;;16.50;99.90;;;;;;5042109;28;20198;-45
2022/09/04 07:13:59;;;;;;;1.97;1.07;;;16.60;99.90;;;;;;5040012;28;20226;-43
2022/09/04 07:16:37;;;;;;;1.20;1.10;;;16.80;99.90;;;;;;5025409;28;20211;-44
2022/09/04 07:19:24;;;;;;;1.37;1.27;;;16.90;99.90;;;;;;5050871;28;20203;-48
2022/09/04 07:22:04;;;;;;;3.43;1.70;;;17.00;99.90;;;;;;5033629;28;20989;-42
2022/09/04 07:24:55;;;;;;;1.40;1.30;;;17.10;99.90;;;;;;5036124;28;20659;-42
2022/09/04 07:27:35;;;;;;;3.47;1.40;;;17.20;99.60;;;;;;5042042;28;20203;-43
2022/09/04 07:30:05;;;;;;;1.47;1.20;;;17.30;99.30;;;;;;5042527;28;20283;-47
2022/09/04 07:32:38;;;;;;;2.27;1.13;;;17.40;99.20;;;;;;5026704;28;20700;-42
2022/09/04 07:35:13;;;;;;;2.27;1.30;;;17.50;99.10;;;;;;5041905;28;20210;-43
2022/09/04 07:37:45;;;;;;;1.50;1.40;;;17.60;99.00;;;;;;5031382;28;20193;-44
2022/09/04 07:40:16;;;;;;;3.40;1.27;;;17.70;98.70;;;;;;5042982;28;20644;-46
2022/09/04 07:42:48;;;;;;;2.30;1.50;;;17.70;98.60;;;;;;5037778;28;20219;-43
2022/09/04 07:45:28;;;;;;;5.50;1.97;;;17.80;98.50;;;;;;5042236;28;20575;-45
2022/09/04 07:48:08;;;;;;;5.33;2.07;;;17.90;98.30;;;;;;5026486;28;20202;-47
2022/09/04 07:50:45;;;;;;;3.30;1.57;;;18.00;98.20;;;;;;5039080;28;20598;-43
2022/09/04 07:53:28;;;;;;;3.17;1.70;;;18.10;97.80;;;;;;5037221;28;20219;-42
2022/09/04 07:56:00;;;;;;;1.37;1.27;;;18.20;97.70;;;;;;5042185;28;20890;-43
2022/09/04 07:58:48;;;;;;;2.20;1.60;;;18.30;97.60;;;;;;5041892;28;20569;-42
2022/09/04 08:01:42;;;;;;;3.17;1.60;;;18.40;97.50;;;;;;5046233;28;20195;-44
2022/09/04 08:04:43;;;;;;;2.43;1.60;;;18.50;97.40;;;;;;5025556;28;20302;-42
2022/09/04 08:07:19;;;;;;;2.30;1.50;;;18.60;97.10;;;;;;5039666;28;20683;-44
2022/09/04 08:10:13;;;;;;;2.87;1.97;;;18.70;96.70;;;;;;5031494;28;20203;-45
2022/09/04 08:13:07;;;;;;;2.00;1.90;;;18.80;96.80;;;;;;5041443;28;20221;-42
2022/09/04 08:15:46;;;;;;;2.33;1.90;;;18.90;96.50;;;;;;5040851;28;20199;-43
2022/09/04 08:18:43;;;;;;;2.07;1.80;;;19.00;96.40;;;;;;5032790;28;20288;-42
2022/09/04 08:21:25;;;;;;;2.67;2.27;;;19.10;96.10;;;;;;5045357;28;20294;-45
2022/09/04 08:24:22;;;;;;;1.80;1.70;;;19.20;96.10;;;;;;5035052;28;20229;-43
2022/09/04 08:27:03;;;;;;;1.87;1.77;;;19.20;95.90;;;;;;5043451;28;20188;-42
2022/09/04 08:29:49;;;;;;;2.37;1.90;;;19.30;95.80;;;;;;5050733;28;20229;-43
2022/09/04 08:32:36;;;;;;;5.10;2.00;;;19.40;95.50;;;;;;5053027;28;20195;-43
2022/09/04 08:35:09;;;;;;;2.03;1.93;;;19.40;95.30;;;;;;5028344;28;20211;-43
2022/09/04 08:37:52;;;;;;;2.40;2.20;;;19.50;95.00;;;;;;5039682;28;20199;-44
2022/09/04 08:41:08;;;;;;;1.80;1.70;;;19.50;94.90;;;;;;5040990;28;20289;-47
2022/09/04 08:43:58;;;;;;;2.87;1.77;;;19.60;94.70;;;;;;5039904;28;20222;-43
2022/09/04 08:47:12;;;;;;;2.43;2.00;;;19.80;94.60;;;;;;5048183;28;20321;-43
2022/09/04 08:50:04;;;;;;;3.47;1.83;;;19.90;94.40;;;;;;5029693;28;20812;-47
2022/09/04 08:52:49;;;;;;;2.07;1.70;;;20.00;94.00;;;;;;5043286;28;20345;-45
2022/09/04 08:55:39;;;;;;;7.20;1.83;;;20.10;93.60;;;;;;5033186;28;20203;-43
2022/09/04 08:58:28;;;;;;;1.77;1.50;;;20.20;93.70;;;;;;5042625;28;20282;-45
2022/09/04 09:01:31;;;;;;;3.30;1.77;;;20.30;93.50;;;;;;5046364;28;20187;-46
2022/09/04 09:04:26;;;;;;;2.80;1.87;;;20.40;93.10;;;;;;5047762;28;21016;-44
2022/09/04 09:07:35;;;;;;;2.10;1.80;;;20.50;93.00;;;;;;5037280;28;20198;-46
2022/09/04 09:10:25;;;;;;;2.17;1.97;;;20.50;92.60;;;;;;5035689;28;20200;-46
2022/09/04 09:13:31;;;;;;;1.90;1.80;;;20.50;92.30;;;;;;5034711;28;20215;-45
2022/09/04 09:16:18;;;;;;;2.30;2.10;;;20.60;92.30;;;;;;5043745;28;20195;-44
2022/09/04 09:19:05;;;;;;;1.97;1.70;;;20.70;92.30;;;;;;5039804;28;20207;-46
2022/09/04 09:21:42;;;;;;;1.60;1.50;;;20.80;92.30;;;;;;5021700;28;20274;-46
2022/09/04 09:24:31;;;;;;;2.20;2.00;;;20.80;91.80;;;;;;5040556;28;20228;-44
2022/09/04 09:27:23;;;;;;;1.97;1.87;;;20.90;91.60;;;;;;5036466;28;20227;-43
2022/09/04 09:30:06;;;;;;;2.23;1.70;;;20.90;91.50;;;;;;5039696;28;20194;-46
2022/09/04 09:33:11;;;;;;;2.80;1.60;;;21.10;91.10;;;;;;5043617;28;20289;-43
2022/09/04 09:36:19;;;;;;;2.00;1.90;;;21.10;91.10;;;;;;5029274;28;20221;-45
2022/09/04 09:39:16;;;;;;;2.30;2.13;;;21.20;91.20;;;;;;5038176;28;20289;-43
2022/09/04 09:42:13;;;;;;;2.17;1.97;;;21.20;90.80;;;;;;5032308;28;20219;-43
2022/09/04 09:45:14;;;;;;;2.77;2.00;;;21.30;90.70;;;;;;5040366;28;20232;-42
2022/09/04 09:48:09;;;;;;;4.27;2.30;;;21.40;90.20;;;;;;5040638;28;20187;-43
2022/09/04 09:51:05;;;;;;;2.43;1.93;;;21.50;90.10;;;;;;5028758;28;20214;-41
2022/09/04 09:54:15;;;;;;;2.10;1.90;;;21.60;89.90;;;;;;5036575;28;20226;-44
2022/09/04 09:57:05;;;;;;;2.33;1.77;;;21.60;89.80;;;;;;5029277;28;20699;-42
2022/09/04 10:00:01;;;;;;;9.40;2.03;;;21.80;88.40;;;;;;5040241;28;21097;-41
2022/09/04 10:03:08;;;;;;;2.73;2.53;;;21.90;88.30;;;;;;5044749;28;20222;-46
2022/09/04 10:05:56;;;;;;;2.90;1.73;;;21.90;87.50;;;;;;5028750;28;20219;-42
2022/09/04 10:08:53;;;;;;;3.40;1.90;;;22.00;87.30;;;;;;5035349;28;20214;-41
2022/09/04 10:12:06;;;;;;;1.90;1.80;;;22.10;84.60;;;;;;5042647;28;20258;-43
2022/09/04 10:15:15;;;;;;;2.10;1.90;;;22.10;84.90;;;;;;5004852;28;20277;-44
2022/09/04 10:18:22;;;;;;;2.17;1.90;;;22.10;84.80;;;;;;5042400;28;20199;-43
2022/09/04 10:21:12;;;;;;;1.80;1.70;;;22.20;84.60;;;;;;5021984;28;20228;-42
2022/09/04 10:24:00;;;;;;;1.63;1.53;;;22.30;85.00;;;;;;5035860;28;20219;-43
2022/09/04 10:27:04;;;;;;;3.83;2.03;;;22.40;83.70;;;;;;5034151;28;20187;-43
2022/09/04 10:30:01;;;;;;;2.60;1.80;;;22.60;83.50;;;;;;5030149;28;20207;-47
2022/09/04 10:32:50;;;;;;;1.90;1.70;;;22.60;82.00;;;;;;5042939;28;20298;-43
2022/09/04 10:35:26;;;;;;;1.80;1.70;;;22.60;81.60;;;;;;5040103;28;20206;-47
2022/09/04 10:38:08;;;;;;;2.27;1.47;;;22.70;80.70;;;;;;5027404;28;20680;-42
2022/09/04 10:40:44;;;;;;;1.90;1.80;;;22.80;80.70;;;;;;5038154;28;20664;-42
2022/09/04 10:43:30;;;;;;;2.00;1.90;;;22.80;79.60;;;;;;5033747;28;21207;-42
2022/09/04 10:46:07;;;;;;;2.37;2.10;;;22.90;78.80;;;;;;5035642;28;20191;-44
2022/09/04 10:48:54;;;;;;;1.53;1.43;;;23.00;77.80;;;;;;5043434;28;20280;-44
2022/09/04 10:51:59;;;;;;;1.90;1.80;;;23.00;77.20;;;;;;5020455;28;20207;-45
2022/09/04 10:55:13;;;;;;;2.83;1.60;;;23.00;77.30;;;;;;5035798;28;20215;-43
2022/09/04 10:58:00;;;;;;;1.60;1.50;;;23.20;77.10;;;;;;5029321;28;20202;-44
2022/09/04 11:00:35;;;;;;;2.43;2.13;;;23.30;76.00;;;;;;5028924;28;20207;-43
2022/09/04 11:03:42;;;;;;;1.80;1.70;;;23.30;76.10;;;;;;5032914;28;20227;-43
2022/09/04 11:06:48;;;;;;;2.17;2.07;;;23.40;76.40;;;;;;5033601;28;20294;-47
2022/09/04 11:09:32;;;;;;;2.13;1.75;;;23.30;75.40;;;;;;5039000;28;20222;-43
2022/09/04 11:12:35;;;;;;;2.60;1.83;;;23.40;75.00;;;;;;5027082;28;20403;-43
2022/09/04 11:15:32;;;;;;;2.10;1.65;;;23.40;74.30;;;;;;5012040;28;20363;-43
2022/09/04 11:18:36;;;;;;;1.73;1.60;;;23.50;74.20;;;;;;5037258;28;20201;-44
2022/09/04 11:21:38;;;;;;;2.80;2.20;;;23.60;73.30;;;;;;5046705;28;20205;-42
2022/09/04 11:24:46;;;;;;;3.77;2.43;;;23.70;73.20;;;;;;5023651;28;20222;-50
2022/09/04 11:27:50;;;;;;;3.15;1.90;;;23.80;72.20;;;;;;4971093;28;20998;-46
2022/09/04 11:30:22;;;;;;;2.15;1.80;;;23.90;72.30;;;;;;5028827;28;20217;-46
2022/09/04 11:33:32;;;;;;;2.03;1.90;;;24.00;71.00;;;;;;5034108;28;20215;-43
2022/09/04 11:36:35;;;;;;;1.80;1.70;;;24.00;69.90;;;;;;5019339;28;20221;-45
2022/09/04 11:39:38;;;;;;;1.70;1.60;;;23.90;70.60;;;;;;5018992;28;23283;-44
2022/09/04 11:42:28;;;;;;;1.98;1.73;;;23.90;70.80;;;;;;5033528;28;20217;-45
2022/09/04 11:45:46;;;;;;;2.75;2.10;;;24.00;70.70;;;;;;5023924;28;20236;-42
2022/09/04 11:48:52;;;;;;;2.20;2.00;;;24.00;70.10;;;;;;5044272;28;20698;-42
2022/09/04 11:51:47;;;;;;;2.05;1.85;;;24.00;69.70;;;;;;5042347;28;20260;-44
2022/09/04 11:54:50;;;;;;;3.47;1.70;;;24.10;69.60;;;;;;5042933;28;20238;-43
2022/09/04 11:57:30;;;;;;;2.20;1.90;;;24.10;68.50;;;;;;5043459;28;20313;-47
2022/09/04 12:00:11;;;;;;;1.88;1.77;;;24.20;68.00;;;;;;5037165;28;20226;-42
2022/09/04 12:03:05;;;;;;;2.78;1.90;;;24.40;67.10;;;;;;5033604;28;20215;-44
2022/09/04 12:05:58;;;;;;;2.17;1.63;;;24.40;67.00;;;;;;5031798;28;20199;-44
2022/09/04 12:08:55;;;;;;;1.75;1.65;;;24.40;66.10;;;;;;5036217;28;20199;-45
2022/09/04 12:11:41;;;;;;;2.20;2.00;;;24.40;65.40;;;;;;5024586;28;20660;-43
2022/09/04 12:14:22;;;;;;;3.50;1.70;;;24.50;65.60;;;;;;5042211;28;20685;-43
2022/09/04 12:17:24;;;;;;;3.45;1.55;;;24.60;65.00;;;;;;5028563;28;20207;-45
2022/09/04 12:20:22;;;;;;;2.45;1.65;;;24.80;64.00;;;;;;5044252;28;20195;-42
2022/09/04 12:23:36;;;;;;;2.92;1.80;;;24.80;62.90;;;;;;5041345;28;20708;-43
2022/09/04 12:26:27;;;;;;;1.70;1.60;;;24.80;63.40;;;;;;5022822;28;20215;-44
2022/09/04 12:29:20;;;;;;;1.63;1.52;;;24.80;63.40;;;;;;5036569;28;20203;-44
2022/09/04 12:32:13;;;;;;;3.20;1.80;;;24.90;63.40;;;;;;5042345;28;20200;-43
2022/09/04 12:35:07;;;;;;;2.67;2.05;;;24.90;61.70;;;;;;5039099;28;20202;-46
2022/09/04 12:37:59;;;;;;;2.45;1.65;;;25.00;62.00;;;;;;5035859;28;20931;-42
2022/09/04 12:40:39;;;;;;;1.90;1.80;;;25.10;61.10;;;;;;5040415;28;20261;-43
2022/09/04 12:43:21;;;;;;;1.80;1.70;;;25.10;60.80;;;;;;5036082;28;20219;-44
2022/09/04 12:45:58;;;;;;;2.70;1.90;;;25.10;61.00;;;;;;5035074;28;20203;-47
2022/09/04 12:48:34;;;;;;;2.33;1.98;;;25.20;61.30;;;;;;5037061;28;20515;-43
2022/09/04 12:51:10;;;;;;;2.45;1.85;;;25.30;61.30;;;;;;5042245;28;20231;-48
2022/09/04 12:53:59;;;;;;;2.58;1.88;;;25.40;61.30;;;;;;5041884;28;20211;-42
2022/09/04 12:56:41;;;;;;;1.83;1.73;;;25.50;60.60;;;;;;5038180;28;20211;-44
2022/09/04 12:59:21;;;;;;;2.17;1.60;;;25.50;60.70;;;;;;5030691;28;20207;-44
2022/09/04 13:02:00;;;;;;;1.70;1.60;;;25.60;60.30;;;;;;5045575;28;20217;-47
2022/09/04 13:04:33;;;;;;;2.05;1.95;;;25.70;59.70;;;;;;5034821;28;20226;-42
2022/09/04 13:07:13;;;;;;;1.80;1.70;;;25.80;59.30;;;;;;5045610;28;20200;-42
2022/09/04 13:09:46;;;;;;;2.13;1.60;;;25.80;59.10;;;;;;5044118;28;20210;-42
2022/09/04 13:12:23;;;;;;;4.65;2.03;;;25.80;59.10;;;;;;5032478;28;20614;-42
2022/09/04 13:15:18;;;;;;;2.33;2.03;;;25.90;59.10;;;;;;5041485;28;20206;-46
2022/09/04 13:17:57;;;;;;;3.08;1.90;;;26.00;58.10;;;;;;5028895;28;21386;-45
2022/09/04 13:20:33;;;;;;;4.18;2.08;;;26.30;57.70;;;;;;5043953;28;20286;-42
2022/09/04 13:23:19;;;;;;;1.73;1.63;;;26.40;57.50;;;;;;5040719;28;20223;-45
2022/09/04 13:26:00;;;;;;;1.92;1.65;;;26.50;57.30;;;;;;5046243;28;20183;-43
2022/09/04 13:28:37;;;;;;;8.70;2.22;;;27.00;57.00;;;;;;5025330;28;20226;-45
2022/09/04 13:31:32;;;;;;;3.92;1.83;;;27.20;56.10;;;;;;5036487;28;20203;-50
2022/09/04 13:34:06;;;;;;;1.75;1.65;;;27.10;55.40;;;;;;5042373;28;20219;-44
2022/09/04 13:36:44;;;;;;;3.53;2.33;;;27.30;55.50;;;;;;5041340;28;20184;-45
2022/09/04 13:39:31;;;;;;;2.17;2.08;;;27.30;56.10;;;;;;5044807;28;20235;-45
2022/09/04 13:42:32;;;;;;;4.63;1.73;;;27.70;54.50;;;;;;5042716;28;20207;-45
2022/09/04 13:45:09;;;;;;;4.82;2.40;;;27.70;54.90;;;;;;5028598;28;20230;-44
2022/09/04 13:47:49;;;;;;;2.72;2.20;;;28.10;54.30;;;;;;5036746;28;20903;-45
2022/09/04 13:50:19;;;;;;;3.85;2.08;;;;;;;;;;5039435;28;20199;-43
2022/09/04 13:52:54;;;;;;;5.65;2.45;;;28.50;53.00;;;;;;5044184;28;20207;-45
2022/09/04 13:55:24;;;;;;;3.70;2.15;;;28.60;52.90;;;;;;5040955;28;20203;-46
2022/09/04 13:57:58;;;;;;;5.07;2.05;;;28.50;52.70;;;;;;5042560;28;20203;-46
2022/09/04 14:00:29;;;;;;;10.27;3.05;;;28.50;52.20;;;;;;5027358;28;20277;-42
2022/09/04 14:03:02;;;;;;;2.97;2.05;;;28.20;51.80;;;;;;5042629;28;20219;-42
2022/09/04 14:05:32;;;;;;;5.88;1.73;;;28.40;51.70;;;;;;5035541;28;20215;-46
2022/09/04 14:08:03;;;;;;;6.93;1.90;;;28.60;51.40;;;;;;5044500;28;20210;-45
2022/09/04 14:10:52;;;;;;;14.95;2.40;;;28.80;51.50;;;;;;5034480;28;20208;-44
2022/09/04 14:13:35;;;;;;;2.75;2.10;;;28.90;50.20;;;;;;5043257;28;20219;-44
2022/09/04 14:16:05;;;;;;;1.92;1.83;;;28.90;49.70;;;;;;5028330;28;20294;-44
2022/09/04 14:18:49;;;;;;;222.57;33.45;;;28.80;50.30;;;;;;5031698;28;23017;-45